Silver Mariner — V7XQ6 — position and weather

sailwx.info

Track history (hours):
 
Tides and Currents Weather Stations Pressure Air Temp Water Temp Dewpoint Dewpoint Depression Visibility Wind Speed Wind Dir Waves Ship Positions

Silver Mariner

Last reported at 2017-Dec-15 10:10 UTC. Time now 2017-Dec-15 15:51 UTC.
Position N 33°38' E 134°53'.

Length 288 m; draft 8.6 m.

Type: Cargo ship. MMSI: 538004545.

Date/timePositionNaut miles runAvg speedWind from/ knotsBaromVisibWave heightAir tempDewpointWater temp
2017-Dec-15 10:10N 33°38' E 134°53'317.3
2017-Dec-15 10:00N 33°40' E 134°54'917.1
2017-Dec-15 09:28N 33°49' E 134°56'817.4
2017-Dec-15 09:00N 33°57' E 134°57'917.4
2017-Dec-15 08:30N 34°06' E 134°57'815.8
2017-Dec-15 08:01N 34°14' E 134°58'917.0
2017-Dec-15 07:30N 34°22' E 134°60'918.2
2017-Dec-15 07:01N 34°28' E 135°08'918.0
2017-Dec-15 06:31N 34°35' E 135°15'612.8
2017-Dec-15 06:00N 34°41' E 135°18'0 0.4
2017-Dec-15 05:29N 34°41' E 135°17'0 0.0
2017-Dec-15 04:59N 34°41' E 135°17'0 0.0
2017-Dec-15 04:29N 34°41' E 135°17'0 0.0
2017-Dec-15 03:59N 34°41' E 135°17'0 0.0
2017-Dec-15 02:29N 34°41' E 135°17'0 0.0
2017-Dec-15 00:59N 34°41' E 135°17'0 0.0
2017-Dec-15 00:29N 34°41' E 135°17'48 8.0
2017-Dec-14 18:31N 33°56' E 135°00'510.3
2017-Dec-14 18:00N 33°50' E 135°01'610.8
2017-Dec-14 17:26N 33°45' E 135°04'17610.2
2017-Dec-14 00:10N 34°18' E 138°33'211.9
2017-Dec-14 00:00N 34°19' E 138°35'711.7
2017-Dec-13 23:26N 34°22' E 138°42'611.8
2017-Dec-13 22:53N 34°24' E 138°49'411.8
2017-Dec-13 22:30N 34°26' E 138°54'611.2
2017-Dec-13 22:00N 34°30' E 138°60'611.3
2017-Dec-13 21:30N 34°34' E 139°04'5 9.9
2017-Dec-13 21:00N 34°38' E 139°08'610.5
2017-Dec-13 20:24N 34°43' E 139°12'410.5
2017-Dec-13 20:00N 34°46' E 139°15'711.2
2017-Dec-13 19:25N 34°51' E 139°21'610.9
2017-Dec-13 18:54N 34°54' E 139°26'410.2
2017-Dec-13 18:29N 34°57' E 139°31'510.7
2017-Dec-13 18:00N 35°00' E 139°35'611.5
2017-Dec-13 17:30N 35°03' E 139°41'611.3
2017-Dec-13 17:00N 35°08' E 139°45'611.3
2017-Dec-13 16:30N 35°14' E 139°46'612.6
2017-Dec-13 16:00N 35°19' E 139°43'5 9.6
2017-Dec-13 15:30N 35°24' E 139°41'0 0.8
2017-Dec-13 14:59N 35°24' E 139°41'0 0.0
2017-Dec-13 14:29N 35°24' E 139°41'0 0.0
2017-Dec-13 13:59N 35°24' E 139°41'0 0.0
2017-Dec-13 13:29N 35°24' E 139°41'0 0.0
2017-Dec-13 12:59N 35°24' E 139°41'0 0.1
2017-Dec-13 12:29N 35°24' E 139°41'0 0.1
2017-Dec-13 11:59N 35°24' E 139°41'0 0.0
2017-Dec-13 11:29N 35°24' E 139°41'0 0.0
2017-Dec-13 10:59N 35°24' E 139°41'0 0.0
2017-Dec-13 10:29N 35°24' E 139°41'0 0.0
2017-Dec-13 09:59N 35°24' E 139°41'0 0.0
2017-Dec-13 09:29N 35°24' E 139°41'0 0.0
2017-Dec-13 08:59N 35°24' E 139°41'1 1.6
2017-Dec-13 08:31N 35°23' E 139°41'510.4
2017-Dec-13 08:01N 35°27' E 139°46'713.2
2017-Dec-13 07:31N 35°32' E 139°51'510.2
2017-Dec-13 06:59N 35°36' E 139°46'0 0.3
2017-Dec-13 06:29N 35°36' E 139°46'0 0.0
2017-Dec-13 05:53N 35°36' E 139°46'0 0.0
2017-Dec-13 05:29N 35°36' E 139°46'0 0.0
2017-Dec-13 04:59N 35°36' E 139°46'0 0.0
2017-Dec-13 04:17N 35°36' E 139°46'0 0.0
2017-Dec-13 03:53N 35°36' E 139°46'0 0.0
2017-Dec-13 02:47N 35°36' E 139°46'0 0.0
2017-Dec-13 02:26N 35°36' E 139°46'0 0.0
2017-Dec-13 01:59N 35°36' E 139°46'0 0.0
2017-Dec-13 01:29N 35°36' E 139°46'0 0.0
2017-Dec-13 00:29N 35°36' E 139°46'0 0.0
2017-Dec-12 23:59N 35°36' E 139°46'0 0.0
2017-Dec-12 23:26N 35°36' E 139°46'0 0.0
2017-Dec-12 22:53N 35°36' E 139°46'0 1.0
2017-Dec-12 22:30N 35°36' E 139°47'5 9.4
2017-Dec-12 22:00N 35°33' E 139°51'5 9.7
2017-Dec-12 21:30N 35°28' E 139°51'713.0
2017-Dec-12 21:00N 35°23' E 139°46'611.6
2017-Dec-12 20:30N 35°17' E 139°46'612.1
2017-Dec-12 20:00N 35°11' E 139°47'612.5
2017-Dec-12 19:30N 35°05' E 139°45'714.0
2017-Dec-12 19:00N 34°59' E 139°42'3 6.6
2017-Dec-12 18:30N 34°55' E 139°41'3 6.1
2017-Dec-12 17:59N 34°53' E 139°39'3 6.2
2017-Dec-12 17:30N 34°50' E 139°37'4 7.7
2017-Dec-12 17:00N 34°47' E 139°34'4 8.3
2017-Dec-12 16:30N 34°43' E 139°33'4 7.8
2017-Dec-12 16:00N 34°39' E 139°31'4 8.4
2017-Dec-12 15:30N 34°37' E 139°27'5 9.4
2017-Dec-12 14:58N 34°37' E 139°21'5 9.5
2017-Dec-12 14:30N 34°36' E 139°15'5 9.4
2017-Dec-12 14:00N 34°35' E 139°10'5 9.4
2017-Dec-12 13:30N 34°34' E 139°04'510.0
2017-Dec-12 13:00N 34°32' E 138°58'5 9.5
2017-Dec-12 12:30N 34°32' E 138°53'5 9.3
2017-Dec-12 12:00N 34°33' E 138°47'510.0
2017-Dec-12 11:30N 34°37' E 138°43'5 9.3
2017-Dec-12 11:00N 34°41' E 138°41'4 7.9
2017-Dec-12 10:30N 34°45' E 138°40'3 5.6
2017-Dec-12 10:00N 34°48' E 138°39'3 6.0
2017-Dec-12 09:29N 34°50' E 138°37'3 6.1
2017-Dec-12 09:00N 34°53' E 138°36'3 6.0
2017-Dec-12 08:30N 34°56' E 138°35'3 6.3
2017-Dec-12 08:00N 34°59' E 138°34'3 6.8
2017-Dec-12 07:30N 35°02' E 138°31'1 1.5
2017-Dec-12 07:00N 35°02' E 138°31'0 0.0
2017-Dec-12 06:30N 35°02' E 138°31'0 0.0
2017-Dec-12 06:00N 35°02' E 138°31'0 0.1
2017-Dec-12 05:30N 35°02' E 138°31'0 0.1
2017-Dec-12 05:00N 35°02' E 138°31'0 0.0
2017-Dec-12 04:30N 35°02' E 138°31'0 0.0
2017-Dec-12 03:57N 35°02' E 138°31'0 0.0
2017-Dec-12 03:30N 35°02' E 138°31'0 0.0
2017-Dec-12 03:00N 35°02' E 138°31'0 0.0
2017-Dec-12 02:30N 35°02' E 138°31'0 0.1
2017-Dec-12 02:00N 35°02' E 138°31'2 3.5
2017-Dec-12 01:30N 35°02' E 138°33'3 5.3
2017-Dec-12 01:00N 34°59' E 138°33'3 6.4
2017-Dec-12 00:30N 34°56' E 138°32'4 7.2
2017-Dec-12 00:00N 34°53' E 138°30'3 6.4
2017-Dec-11 23:30N 34°50' E 138°29'3 5.7
2017-Dec-11 23:00N 34°47' E 138°28'4 7.4
2017-Dec-11 22:31N 34°44' E 138°26'5 8.8
2017-Dec-11 21:59N 34°39' E 138°24'4 8.7
2017-Dec-11 21:30N 34°35' E 138°23'4 9.0
2017-Dec-11 21:00N 34°31' E 138°21'611.0
2017-Dec-11 20:30N 34°29' E 138°15'712.8
2017-Dec-11 19:57N 34°29' E 138°06'612.4
2017-Dec-11 19:30N 34°29' E 137°59'611.9
2017-Dec-11 19:00N 34°30' E 137°52'2311.8
2017-Dec-11 17:01N 34°31' E 137°24'012.8
2017-Dec-11 16:59N 34°31' E 137°23'610.2
2017-Dec-11 16:24N 34°29' E 137°16'612.6
2017-Dec-11 15:58N 34°29' E 137°09'510.8
2017-Dec-11 15:29N 34°30' E 137°03'511.5
2017-Dec-11 15:01N 34°34' E 136°60'815.9
2017-Dec-11 14:30N 34°39' E 136°52'917.1
2017-Dec-11 14:01N 34°46' E 136°47'917.1
2017-Dec-11 13:30N 34°55' E 136°46'714.2
2017-Dec-11 13:00N 35°01' E 136°50'1 2.6
2017-Dec-11 12:30N 35°02' E 136°50'0 0.0
2017-Dec-11 11:57N 35°02' E 136°50'0 0.0
2017-Dec-11 11:30N 35°02' E 136°50'0 0.0
2017-Dec-11 10:57N 35°02' E 136°50'0 0.0
2017-Dec-11 10:30N 35°02' E 136°50'0 0.0
2017-Dec-11 10:00N 35°02' E 136°50'0 0.0
2017-Dec-11 09:27N 35°02' E 136°50'0 0.0
2017-Dec-11 08:57N 35°02' E 136°50'0 0.0
2017-Dec-11 08:30N 35°02' E 136°50'0 0.0
2017-Dec-11 07:57N 35°02' E 136°50'0 0.0
2017-Dec-11 07:27N 35°02' E 136°50'0 0.0
2017-Dec-11 06:51N 35°02' E 136°50'0 0.0
2017-Dec-11 06:27N 35°02' E 136°50'0 0.0
2017-Dec-11 05:57N 35°02' E 136°50'0 0.0
2017-Dec-11 05:30N 35°02' E 136°50'1 1.3
2017-Dec-11 05:00N 35°02' E 136°51'4 8.9
2017-Dec-11 04:30N 34°59' E 136°46'510.2
2017-Dec-11 04:00N 34°60' E 136°40'0 0.3
2017-Dec-11 03:28N 34°60' E 136°40'0 0.0
2017-Dec-11 02:58N 34°60' E 136°40'0 0.0
2017-Dec-11 02:28N 34°60' E 136°40'0 0.0
2017-Dec-11 01:58N 34°60' E 136°40'0 0.0
2017-Dec-11 01:28N 34°60' E 136°40'0 0.0
2017-Dec-11 00:58N 34°60' E 136°40'0 0.0
2017-Dec-11 00:28N 34°60' E 136°40'0 0.0
2017-Dec-10 23:58N 34°60' E 136°40'0 0.0
2017-Dec-10 23:28N 34°60' E 136°40'0 0.0
2017-Dec-10 22:58N 34°60' E 136°40'0 0.0
2017-Dec-10 22:29N 34°60' E 136°40'1 1.8
2017-Dec-10 22:00N 34°59' E 136°41'5 9.7
2017-Dec-10 21:31N 34°55' E 136°44'816.2
2017-Dec-10 21:01N 34°47' E 136°47'815.8
2017-Dec-10 20:30N 34°40' E 136°52'815.5
2017-Dec-10 19:59N 34°35' E 136°59'613.0
2017-Dec-10 19:31N 34°30' E 137°04'1513.8
2017-Dec-10 18:27N 34°16' E 137°04'4214.9
2017-Dec-10 15:39N 33°45' E 136°30'415.8
2017-Dec-10 15:25N 33°42' E 136°27'5414.9
2017-Dec-10 11:49N 33°23' E 135°27'716.6
2017-Dec-10 11:22N 33°27' E 135°20'1716.3
2017-Dec-10 10:21N 33°40' E 135°07'716.4
2017-Dec-10 09:57N 33°46' E 135°04'817.8
2017-Dec-10 09:30N 33°53' E 134°59'817.0
2017-Dec-10 09:00N 34°01' E 134°59'816.7
2017-Dec-10 08:30N 34°10' E 134°58'611.8
2017-Dec-10 08:00N 34°15' E 134°58'815.3
2017-Dec-10 07:30N 34°23' E 135°01'816.7
2017-Dec-10 07:00N 34°29' E 135°08'917.2
2017-Dec-10 06:31N 34°34' E 135°17'815.1
2017-Dec-10 06:00N 34°38' E 135°24'2 4.6
2017-Dec-10 05:30N 34°38' E 135°27'0 0.1
2017-Dec-10 05:00N 34°38' E 135°26'0 0.0
2017-Dec-10 04:30N 34°38' E 135°26'0 0.0
2017-Dec-10 04:00N 34°38' E 135°26'0 0.0
2017-Dec-10 03:30N 34°38' E 135°26'0 0.1
2017-Dec-10 03:00N 34°38' E 135°27'0 0.1
2017-Dec-10 02:30N 34°38' E 135°26'0 0.0
2017-Dec-10 02:00N 34°38' E 135°26'0 0.0
2017-Dec-10 01:30N 34°38' E 135°26'0 0.0
2017-Dec-10 01:00N 34°38' E 135°26'0 0.0
2017-Dec-10 00:30N 34°38' E 135°26'0 0.0
2017-Dec-10 00:00N 34°38' E 135°26'1 1.8
2017-Dec-09 23:30N 34°39' E 135°26'5 9.1
2017-Dec-09 23:00N 34°37' E 135°21'816.4
2017-Dec-09 22:31N 34°31' E 135°14'917.6
2017-Dec-09 22:01N 34°25' E 135°07'917.4
2017-Dec-09 21:31N 34°18' E 134°60'815.8
2017-Dec-09 21:01N 34°10' E 134°58'713.1
2017-Dec-09 20:30N 34°04' E 134°58'816.6
2017-Dec-09 20:00N 33°56' E 134°57'816.6
2017-Dec-09 19:30N 33°47' E 134°56'816.8
2017-Dec-09 19:00N 33°39' E 134°54'14112.5
2017-Dec-09 07:43N 33°07' E 132°09'417.7
2017-Dec-09 07:29N 33°11' E 132°07'918.4
2017-Dec-09 07:00N 33°18' E 132°00'918.6
2017-Dec-09 06:30N 33°26' E 131°54'917.9
2017-Dec-09 06:00N 33°34' E 131°50'918.0
2017-Dec-09 05:30N 33°42' E 131°45'816.3
2017-Dec-09 05:00N 33°46' E 131°37'917.4
2017-Dec-09 04:30N 33°48' E 131°27'917.1
2017-Dec-09 04:00N 33°50' E 131°17'816.7
2017-Dec-09 03:30N 33°54' E 131°08'714.7
2017-Dec-09 03:00N 33°58' E 131°01'510.7
2017-Dec-09 02:30N 33°55' E 130°56'4 9.0
2017-Dec-09 02:01N 33°58' E 130°53'510.3
2017-Dec-09 01:30N 34°03' E 130°49'612.2
2017-Dec-09 01:00N 34°06' E 130°43'612.0
2017-Dec-09 00:30N 34°09' E 130°37'612.2
2017-Dec-09 00:00N 34°13' E 130°31'612.3
2017-Dec-08 23:30N 34°17' E 130°25'612.1
2017-Dec-08 23:00N 34°20' E 130°19'714.0
2017-Dec-08 22:30N 34°25' E 130°12'917.2
2017-Dec-08 22:00N 34°29' E 130°04'  
Track history (hours):
 
Tides and Currents Weather Stations Pressure Air Temp Water Temp Dewpoint Dewpoint Depression Visibility Wind Speed Wind Dir Waves Ship Positions

Silver Mariner

Last reported at 2017-Dec-15 10:10 UTC. Time now 2017-Dec-15 15:51 UTC.
Position N 33°38' E 134°53'.

Length 288 m; draft 8.6 m.

Type: Cargo ship. MMSI: 538004545.

Date/timePositionNaut miles runAvg speedWind from/ knotsBaromVisibWave heightAir tempDewpointWater temp
2017-Dec-15 10:10N 33°38' E 134°53'317.3
2017-Dec-15 10:00N 33°40' E 134°54'917.1
2017-Dec-15 09:28N 33°49' E 134°56'817.4
2017-Dec-15 09:00N 33°57' E 134°57'917.4
2017-Dec-15 08:30N 34°06' E 134°57'815.8
2017-Dec-15 08:01N 34°14' E 134°58'917.0
2017-Dec-15 07:30N 34°22' E 134°60'918.2
2017-Dec-15 07:01N 34°28' E 135°08'918.0
2017-Dec-15 06:31N 34°35' E 135°15'612.8
2017-Dec-15 06:00N 34°41' E 135°18'0 0.4
2017-Dec-15 05:29N 34°41' E 135°17'0 0.0
2017-Dec-15 04:59N 34°41' E 135°17'0 0.0
2017-Dec-15 04:29N 34°41' E 135°17'0 0.0
2017-Dec-15 03:59N 34°41' E 135°17'0 0.0
2017-Dec-15 02:29N 34°41' E 135°17'0 0.0
2017-Dec-15 00:59N 34°41' E 135°17'0 0.0
2017-Dec-15 00:29N 34°41' E 135°17'48 8.0
2017-Dec-14 18:31N 33°56' E 135°00'510.3
2017-Dec-14 18:00N 33°50' E 135°01'610.8
2017-Dec-14 17:26N 33°45' E 135°04'17610.2
2017-Dec-14 00:10N 34°18' E 138°33'211.9
2017-Dec-14 00:00N 34°19' E 138°35'711.7
2017-Dec-13 23:26N 34°22' E 138°42'611.8
2017-Dec-13 22:53N 34°24' E 138°49'411.8
2017-Dec-13 22:30N 34°26' E 138°54'611.2
2017-Dec-13 22:00N 34°30' E 138°60'611.3
2017-Dec-13 21:30N 34°34' E 139°04'5 9.9
2017-Dec-13 21:00N 34°38' E 139°08'610.5
2017-Dec-13 20:24N 34°43' E 139°12'410.5
2017-Dec-13 20:00N 34°46' E 139°15'711.2
2017-Dec-13 19:25N 34°51' E 139°21'610.9
2017-Dec-13 18:54N 34°54' E 139°26'410.2
2017-Dec-13 18:29N 34°57' E 139°31'510.7
2017-Dec-13 18:00N 35°00' E 139°35'611.5
2017-Dec-13 17:30N 35°03' E 139°41'611.3
2017-Dec-13 17:00N 35°08' E 139°45'611.3
2017-Dec-13 16:30N 35°14' E 139°46'612.6
2017-Dec-13 16:00N 35°19' E 139°43'5 9.6
2017-Dec-13 15:30N 35°24' E 139°41'0 0.8
2017-Dec-13 14:59N 35°24' E 139°41'0 0.0
2017-Dec-13 14:29N 35°24' E 139°41'0 0.0
2017-Dec-13 13:59N 35°24' E 139°41'0 0.0
2017-Dec-13 13:29N 35°24' E 139°41'0 0.0
2017-Dec-13 12:59N 35°24' E 139°41'0 0.1
2017-Dec-13 12:29N 35°24' E 139°41'0 0.1
2017-Dec-13 11:59N 35°24' E 139°41'0 0.0
2017-Dec-13 11:29N 35°24' E 139°41'0 0.0
2017-Dec-13 10:59N 35°24' E 139°41'0 0.0
2017-Dec-13 10:29N 35°24' E 139°41'0 0.0
2017-Dec-13 09:59N 35°24' E 139°41'0 0.0
2017-Dec-13 09:29N 35°24' E 139°41'0 0.0
2017-Dec-13 08:59N 35°24' E 139°41'1 1.6
2017-Dec-13 08:31N 35°23' E 139°41'510.4
2017-Dec-13 08:01N 35°27' E 139°46'713.2
2017-Dec-13 07:31N 35°32' E 139°51'510.2
2017-Dec-13 06:59N 35°36' E 139°46'0 0.3
2017-Dec-13 06:29N 35°36' E 139°46'0 0.0
2017-Dec-13 05:53N 35°36' E 139°46'0 0.0
2017-Dec-13 05:29N 35°36' E 139°46'0 0.0
2017-Dec-13 04:59N 35°36' E 139°46'0 0.0
2017-Dec-13 04:17N 35°36' E 139°46'0 0.0
2017-Dec-13 03:53N 35°36' E 139°46'0 0.0
2017-Dec-13 02:47N 35°36' E 139°46'0 0.0
2017-Dec-13 02:26N 35°36' E 139°46'0 0.0
2017-Dec-13 01:59N 35°36' E 139°46'0 0.0
2017-Dec-13 01:29N 35°36' E 139°46'0 0.0
2017-Dec-13 00:29N 35°36' E 139°46'0 0.0
2017-Dec-12 23:59N 35°36' E 139°46'0 0.0
2017-Dec-12 23:26N 35°36' E 139°46'0 0.0
2017-Dec-12 22:53N 35°36' E 139°46'0 1.0
2017-Dec-12 22:30N 35°36' E 139°47'5 9.4
2017-Dec-12 22:00N 35°33' E 139°51'5 9.7
2017-Dec-12 21:30N 35°28' E 139°51'713.0
2017-Dec-12 21:00N 35°23' E 139°46'611.6
2017-Dec-12 20:30N 35°17' E 139°46'612.1
2017-Dec-12 20:00N 35°11' E 139°47'612.5
2017-Dec-12 19:30N 35°05' E 139°45'714.0
2017-Dec-12 19:00N 34°59' E 139°42'3 6.6
2017-Dec-12 18:30N 34°55' E 139°41'3 6.1
2017-Dec-12 17:59N 34°53' E 139°39'3 6.2
2017-Dec-12 17:30N 34°50' E 139°37'4 7.7
2017-Dec-12 17:00N 34°47' E 139°34'4 8.3
2017-Dec-12 16:30N 34°43' E 139°33'4 7.8
2017-Dec-12 16:00N 34°39' E 139°31'4 8.4
2017-Dec-12 15:30N 34°37' E 139°27'5 9.4
2017-Dec-12 14:58N 34°37' E 139°21'5 9.5
2017-Dec-12 14:30N 34°36' E 139°15'5 9.4
2017-Dec-12 14:00N 34°35' E 139°10'5 9.4
2017-Dec-12 13:30N 34°34' E 139°04'510.0
2017-Dec-12 13:00N 34°32' E 138°58'5 9.5
2017-Dec-12 12:30N 34°32' E 138°53'5 9.3
2017-Dec-12 12:00N 34°33' E 138°47'510.0
2017-Dec-12 11:30N 34°37' E 138°43'5 9.3
2017-Dec-12 11:00N 34°41' E 138°41'4 7.9
2017-Dec-12 10:30N 34°45' E 138°40'3 5.6
2017-Dec-12 10:00N 34°48' E 138°39'3 6.0
2017-Dec-12 09:29N 34°50' E 138°37'3 6.1
2017-Dec-12 09:00N 34°53' E 138°36'3 6.0
2017-Dec-12 08:30N 34°56' E 138°35'3 6.3
2017-Dec-12 08:00N 34°59' E 138°34'3 6.8
2017-Dec-12 07:30N 35°02' E 138°31'1 1.5
2017-Dec-12 07:00N 35°02' E 138°31'0 0.0
2017-Dec-12 06:30N 35°02' E 138°31'0 0.0
2017-Dec-12 06:00N 35°02' E 138°31'0 0.1
2017-Dec-12 05:30N 35°02' E 138°31'0 0.1
2017-Dec-12 05:00N 35°02' E 138°31'0 0.0
2017-Dec-12 04:30N 35°02' E 138°31'0 0.0
2017-Dec-12 03:57N 35°02' E 138°31'0 0.0
2017-Dec-12 03:30N 35°02' E 138°31'0 0.0
2017-Dec-12 03:00N 35°02' E 138°31'0 0.0
2017-Dec-12 02:30N 35°02' E 138°31'0 0.1
2017-Dec-12 02:00N 35°02' E 138°31'2 3.5
2017-Dec-12 01:30N 35°02' E 138°33'3 5.3
2017-Dec-12 01:00N 34°59' E 138°33'3 6.4
2017-Dec-12 00:30N 34°56' E 138°32'4 7.2
2017-Dec-12 00:00N 34°53' E 138°30'3 6.4
2017-Dec-11 23:30N 34°50' E 138°29'3 5.7
2017-Dec-11 23:00N 34°47' E 138°28'4 7.4
2017-Dec-11 22:31N 34°44' E 138°26'5 8.8
2017-Dec-11 21:59N 34°39' E 138°24'4 8.7
2017-Dec-11 21:30N 34°35' E 138°23'4 9.0
2017-Dec-11 21:00N 34°31' E 138°21'611.0
2017-Dec-11 20:30N 34°29' E 138°15'712.8
2017-Dec-11 19:57N 34°29' E 138°06'612.4
2017-Dec-11 19:30N 34°29' E 137°59'611.9
2017-Dec-11 19:00N 34°30' E 137°52'2311.8
2017-Dec-11 17:01N 34°31' E 137°24'012.8
2017-Dec-11 16:59N 34°31' E 137°23'610.2
2017-Dec-11 16:24N 34°29' E 137°16'612.6
2017-Dec-11 15:58N 34°29' E 137°09'510.8
2017-Dec-11 15:29N 34°30' E 137°03'511.5
2017-Dec-11 15:01N 34°34' E 136°60'815.9
2017-Dec-11 14:30N 34°39' E 136°52'917.1
2017-Dec-11 14:01N 34°46' E 136°47'917.1
2017-Dec-11 13:30N 34°55' E 136°46'714.2
2017-Dec-11 13:00N 35°01' E 136°50'1 2.6
2017-Dec-11 12:30N 35°02' E 136°50'0 0.0
2017-Dec-11 11:57N 35°02' E 136°50'0 0.0
2017-Dec-11 11:30N 35°02' E 136°50'0 0.0
2017-Dec-11 10:57N 35°02' E 136°50'0 0.0
2017-Dec-11 10:30N 35°02' E 136°50'0 0.0
2017-Dec-11 10:00N 35°02' E 136°50'0 0.0
2017-Dec-11 09:27N 35°02' E 136°50'0 0.0
2017-Dec-11 08:57N 35°02' E 136°50'0 0.0
2017-Dec-11 08:30N 35°02' E 136°50'0 0.0
2017-Dec-11 07:57N 35°02' E 136°50'0 0.0
2017-Dec-11 07:27N 35°02' E 136°50'0 0.0
2017-Dec-11 06:51N 35°02' E 136°50'0 0.0
2017-Dec-11 06:27N 35°02' E 136°50'0 0.0
2017-Dec-11 05:57N 35°02' E 136°50'0 0.0
2017-Dec-11 05:30N 35°02' E 136°50'1 1.3
2017-Dec-11 05:00N 35°02' E 136°51'4 8.9
2017-Dec-11 04:30N 34°59' E 136°46'510.2
2017-Dec-11 04:00N 34°60' E 136°40'0 0.3
2017-Dec-11 03:28N 34°60' E 136°40'0 0.0
2017-Dec-11 02:58N 34°60' E 136°40'0 0.0
2017-Dec-11 02:28N 34°60' E 136°40'0 0.0
2017-Dec-11 01:58N 34°60' E 136°40'0 0.0
2017-Dec-11 01:28N 34°60' E 136°40'0 0.0
2017-Dec-11 00:58N 34°60' E 136°40'0 0.0
2017-Dec-11 00:28N 34°60' E 136°40'0 0.0
2017-Dec-10 23:58N 34°60' E 136°40'0 0.0
2017-Dec-10 23:28N 34°60' E 136°40'0 0.0
2017-Dec-10 22:58N 34°60' E 136°40'0 0.0
2017-Dec-10 22:29N 34°60' E 136°40'1 1.8
2017-Dec-10 22:00N 34°59' E 136°41'5 9.7
2017-Dec-10 21:31N 34°55' E 136°44'816.2
2017-Dec-10 21:01N 34°47' E 136°47'815.8
2017-Dec-10 20:30N 34°40' E 136°52'815.5
2017-Dec-10 19:59N 34°35' E 136°59'613.0
2017-Dec-10 19:31N 34°30' E 137°04'1513.8
2017-Dec-10 18:27N 34°16' E 137°04'4214.9
2017-Dec-10 15:39N 33°45' E 136°30'415.8
2017-Dec-10 15:25N 33°42' E 136°27'5414.9
2017-Dec-10 11:49N 33°23' E 135°27'716.6
2017-Dec-10 11:22N 33°27' E 135°20'1716.3
2017-Dec-10 10:21N 33°40' E 135°07'716.4
2017-Dec-10 09:57N 33°46' E 135°04'817.8
2017-Dec-10 09:30N 33°53' E 134°59'817.0
2017-Dec-10 09:00N 34°01' E 134°59'816.7
2017-Dec-10 08:30N 34°10' E 134°58'611.8
2017-Dec-10 08:00N 34°15' E 134°58'815.3
2017-Dec-10 07:30N 34°23' E 135°01'816.7
2017-Dec-10 07:00N 34°29' E 135°08'917.2
2017-Dec-10 06:31N 34°34' E 135°17'815.1
2017-Dec-10 06:00N 34°38' E 135°24'2 4.6
2017-Dec-10 05:30N 34°38' E 135°27'0 0.1
2017-Dec-10 05:00N 34°38' E 135°26'0 0.0
2017-Dec-10 04:30N 34°38' E 135°26'0 0.0
2017-Dec-10 04:00N 34°38' E 135°26'0 0.0
2017-Dec-10 03:30N 34°38' E 135°26'0 0.1
2017-Dec-10 03:00N 34°38' E 135°27'0 0.1
2017-Dec-10 02:30N 34°38' E 135°26'0 0.0
2017-Dec-10 02:00N 34°38' E 135°26'0 0.0
2017-Dec-10 01:30N 34°38' E 135°26'0 0.0
2017-Dec-10 01:00N 34°38' E 135°26'0 0.0
2017-Dec-10 00:30N 34°38' E 135°26'0 0.0
2017-Dec-10 00:00N 34°38' E 135°26'1 1.8
2017-Dec-09 23:30N 34°39' E 135°26'5 9.1
2017-Dec-09 23:00N 34°37' E 135°21'816.4
2017-Dec-09 22:31N 34°31' E 135°14'917.6
2017-Dec-09 22:01N 34°25' E 135°07'917.4
2017-Dec-09 21:31N 34°18' E 134°60'815.8
2017-Dec-09 21:01N 34°10' E 134°58'713.1
2017-Dec-09 20:30N 34°04' E 134°58'816.6
2017-Dec-09 20:00N 33°56' E 134°57'816.6
2017-Dec-09 19:30N 33°47' E 134°56'816.8
2017-Dec-09 19:00N 33°39' E 134°54'14112.5
2017-Dec-09 07:43N 33°07' E 132°09'417.7
2017-Dec-09 07:29N 33°11' E 132°07'918.4
2017-Dec-09 07:00N 33°18' E 132°00'918.6
2017-Dec-09 06:30N 33°26' E 131°54'917.9
2017-Dec-09 06:00N 33°34' E 131°50'918.0
2017-Dec-09 05:30N 33°42' E 131°45'816.3
2017-Dec-09 05:00N 33°46' E 131°37'917.4
2017-Dec-09 04:30N 33°48' E 131°27'917.1
2017-Dec-09 04:00N 33°50' E 131°17'816.7
2017-Dec-09 03:30N 33°54' E 131°08'714.7
2017-Dec-09 03:00N 33°58' E 131°01'510.7
2017-Dec-09 02:30N 33°55' E 130°56'4 9.0
2017-Dec-09 02:01N 33°58' E 130°53'510.3
2017-Dec-09 01:30N 34°03' E 130°49'612.2
2017-Dec-09 01:00N 34°06' E 130°43'612.0
2017-Dec-09 00:30N 34°09' E 130°37'612.2
2017-Dec-09 00:00N 34°13' E 130°31'612.3
2017-Dec-08 23:30N 34°17' E 130°25'612.1
2017-Dec-08 23:00N 34°20' E 130°19'714.0
2017-Dec-08 22:30N 34°25' E 130°12'917.2
2017-Dec-08 22:00N 34°29' E 130°04'  

Dump ship's entire track history